Time;durP1;ratioP1;P1;durP2;ratioP2;P2;SDS_P1;SDS_P2;PMS_P1;PMS_P2;Temp;Humidity;BMP_temperature;BMP_pressure;BME280_temperature;BME280_humidity;BME280_pressure;Samples;Min_cycle;Max_cycle;Signal;HPM_P1;HPM_P2
2022/07/03 00:01:19;;;;;;;4.30;2.08;;;19.10;99.90;;;;;;5044413;28;20406;-78
2022/07/03 00:03:45;;;;;;;5.10;2.00;;;19.00;99.90;;;;;;5039373;28;20033;-78
2022/07/03 00:06:11;;;;;;;4.05;2.30;;;19.00;99.90;;;;;;5043126;28;20165;-78
2022/07/03 00:08:37;;;;;;;4.85;2.42;;;18.90;99.90;;;;;;5042409;28;20395;-78
2022/07/03 00:11:04;;;;;;;3.63;2.35;;;18.90;99.90;;;;;;5042721;28;20033;-78
2022/07/03 00:13:29;;;;;;;4.47;2.35;;;18.80;99.90;;;;;;5043689;28;20093;-78
2022/07/03 00:15:55;;;;;;;5.13;2.00;;;18.80;99.90;;;;;;5043410;28;20041;-78
2022/07/03 00:18:20;;;;;;;4.93;2.10;;;18.70;99.90;;;;;;5042282;28;20041;-79
2022/07/03 00:20:53;;;;;;;3.33;2.10;;;18.70;99.90;;;;;;5028258;28;20033;-78
2022/07/03 00:23:21;;;;;;;3.97;2.10;;;18.60;99.90;;;;;;5043100;28;20049;-78
2022/07/03 00:25:49;;;;;;;3.92;2.83;;;18.50;99.90;;;;;;5041994;28;20040;-78
2022/07/03 00:28:18;;;;;;;6.45;2.60;;;18.50;99.90;;;;;;5043446;28;22119;-78
2022/07/03 00:30:47;;;;;;;4.20;2.10;;;18.40;99.90;;;;;;5040637;28;20115;-78
2022/07/03 00:33:14;;;;;;;5.07;2.30;;;18.30;99.90;;;;;;5039877;28;20507;-78
2022/07/03 00:35:41;;;;;;;5.28;2.55;;;18.30;99.90;;;;;;5025803;28;20122;-78
2022/07/03 00:38:07;;;;;;;5.22;2.40;;;18.20;99.90;;;;;;5042721;28;20521;-79
2022/07/03 00:40:33;;;;;;;5.63;2.33;;;18.20;99.90;;;;;;5044755;28;20029;-78
2022/07/03 00:43:00;;;;;;;5.07;2.30;;;18.10;99.90;;;;;;5042138;28;20560;-78
2022/07/03 00:45:26;;;;;;;5.22;2.50;;;18.00;99.90;;;;;;5055966;28;20120;-78
2022/07/03 00:47:53;;;;;;;3.95;2.17;;;18.00;99.90;;;;;;5041341;28;20067;-78
2022/07/03 00:50:24;;;;;;;3.83;2.38;;;18.00;99.90;;;;;;5043162;28;20052;-78
2022/07/03 00:52:52;;;;;;;3.92;2.30;;;17.90;99.90;;;;;;5024763;28;20037;-78
2022/07/03 00:55:18;;;;;;;5.00;2.88;;;17.90;99.90;;;;;;5042048;28;20036;-78
2022/07/03 00:57:47;;;;;;;5.03;2.55;;;17.80;99.90;;;;;;5042647;28;20060;-79
2022/07/03 01:00:14;;;;;;;4.65;2.38;;;17.70;99.90;;;;;;5044384;28;20068;-78
2022/07/03 01:02:51;;;;;;;3.55;2.25;;;17.70;99.90;;;;;;5043355;28;20053;-78
2022/07/03 01:05:36;;;;;;;4.32;2.05;;;17.60;99.90;;;;;;5040156;28;20446;-78
2022/07/03 01:08:14;;;;;;;4.72;2.28;;;17.60;99.90;;;;;;5026874;28;20037;-79
2022/07/03 01:10:49;;;;;;;2.92;2.25;;;17.50;99.90;;;;;;5041862;28;20045;-78
2022/07/03 01:13:25;;;;;;;5.35;2.53;;;17.50;99.90;;;;;;5042160;28;20045;-79
2022/07/03 01:16:05;;;;;;;4.22;2.40;;;17.40;99.90;;;;;;5040849;28;20052;-78
2022/07/03 01:18:59;;;;;;;3.65;2.50;;;17.40;99.90;;;;;;5052687;28;20079;-78
2022/07/03 01:21:52;;;;;;;6.87;2.20;;;17.30;99.90;;;;;;5042431;28;20041;-79
2022/07/03 01:24:36;;;;;;;2.92;2.63;;;17.30;99.90;;;;;;5041399;28;20041;-78
2022/07/03 01:27:07;;;;;;;2.95;2.15;;;17.20;99.90;;;;;;5040960;28;20145;-79
2022/07/03 01:29:51;;;;;;;3.45;2.42;;;17.10;99.90;;;;;;5041249;28;20529;-78
2022/07/03 01:32:18;;;;;;;3.42;2.40;;;17.00;99.90;;;;;;5046835;28;20175;-78
2022/07/03 01:34:51;;;;;;;3.90;2.60;;;17.00;99.90;;;;;;5044802;28;20051;-79
2022/07/03 01:37:21;;;;;;;7.32;4.20;;;17.00;99.90;;;;;;5046312;28;20068;-78
2022/07/03 01:39:51;;;;;;;7.40;4.20;;;17.00;99.90;;;;;;5045003;28;20494;-78
2022/07/03 01:42:19;;;;;;;6.22;3.95;;;16.90;99.90;;;;;;5046637;28;20044;-79
2022/07/03 01:44:47;;;;;;;5.43;3.97;;;16.90;99.90;;;;;;5045637;28;20497;-78
2022/07/03 01:47:14;;;;;;;5.28;4.38;;;16.90;99.90;;;;;;5043573;28;20037;-78
2022/07/03 01:49:41;;;;;;;5.25;4.10;;;16.90;99.90;;;;;;5047743;28;20047;-78
2022/07/03 01:52:08;;;;;;;5.10;3.60;;;16.80;99.90;;;;;;5047113;28;20428;-78
2022/07/03 01:54:36;;;;;;;3.90;3.30;;;16.80;99.90;;;;;;5044553;28;20048;-79
2022/07/03 01:57:06;;;;;;;6.00;3.40;;;16.70;99.90;;;;;;5045472;28;20037;-78
2022/07/03 01:59:32;;;;;;;5.68;3.50;;;16.60;99.90;;;;;;5045720;28;20064;-79
2022/07/03 02:02:08;;;;;;;6.40;3.53;;;16.50;99.90;;;;;;5052516;28;20091;-78
2022/07/03 02:04:58;;;;;;;4.35;3.45;;;16.50;99.90;;;;;;5057610;28;20381;-79
2022/07/03 02:07:54;;;;;;;4.22;3.17;;;16.40;99.90;;;;;;5027986;28;20037;-78
2022/07/03 02:10:32;;;;;;;7.93;3.45;;;16.40;99.90;;;;;;5045265;28;20045;-79
2022/07/03 02:13:13;;;;;;;4.40;3.30;;;16.40;99.90;;;;;;5045806;28;20550;-79
2022/07/03 02:15:42;;;;;;;5.32;3.38;;;16.50;99.90;;;;;;5041862;28;20044;-79
2022/07/03 02:18:29;;;;;;;5.82;4.25;;;16.30;99.90;;;;;;5045566;28;20041;-78
2022/07/03 02:21:15;;;;;;;6.00;4.28;;;16.00;99.90;;;;;;5044145;28;20033;-78
2022/07/03 02:24:05;;;;;;;7.05;4.32;;;15.80;99.90;;;;;;5045253;28;20029;-79
2022/07/03 02:26:34;;;;;;;4.85;4.22;;;15.60;99.90;;;;;;5044776;28;20045;-78
2022/07/03 02:29:09;;;;;;;5.88;4.13;;;15.50;99.90;;;;;;5046394;28;20037;-78
2022/07/03 02:31:46;;;;;;;4.97;4.47;;;15.40;99.90;;;;;;5043128;28;20483;-78
2022/07/03 02:34:21;;;;;;;4.80;4.18;;;15.40;99.90;;;;;;5044883;28;20048;-78
2022/07/03 02:36:48;;;;;;;5.60;4.40;;;15.50;99.90;;;;;;5042537;28;20102;-78
2022/07/03 02:39:44;;;;;;;6.35;4.30;;;15.70;99.90;;;;;;5044537;28;20186;-79
2022/07/03 02:42:29;;;;;;;5.38;3.97;;;15.70;99.90;;;;;;5058793;28;20088;-79
2022/07/03 02:44:59;;;;;;;5.25;4.50;;;15.70;99.90;;;;;;5042662;28;20069;-78
2022/07/03 02:47:35;;;;;;;5.75;4.10;;;15.70;99.90;;;;;;5043269;28;20380;-79
2022/07/03 02:50:05;;;;;;;6.80;4.70;;;15.60;99.90;;;;;;5030037;28;20072;-79
2022/07/03 02:53:01;;;;;;;4.90;4.22;;;15.60;99.90;;;;;;5044309;28;20041;-79
2022/07/03 02:55:41;;;;;;;8.45;4.55;;;15.60;99.90;;;;;;5035906;28;20167;-78
2022/07/03 02:58:31;;;;;;;4.78;4.15;;;15.60;99.90;;;;;;5042080;28;20088;-78
2022/07/03 03:01:15;;;;;;;6.50;4.50;;;15.70;99.90;;;;;;5045176;28;20494;-78
2022/07/03 03:04:06;;;;;;;4.53;4.03;;;15.80;99.90;;;;;;5043136;28;20041;-78
2022/07/03 03:06:35;;;;;;;4.55;4.00;;;15.70;99.90;;;;;;5029544;28;20033;-79
2022/07/03 03:09:03;;;;;;;5.07;3.90;;;15.80;99.90;;;;;;5057390;28;20569;-79
2022/07/03 03:11:43;;;;;;;5.53;3.53;;;15.80;99.90;;;;;;5045095;28;20048;-79
2022/07/03 03:14:12;;;;;;;6.60;3.78;;;15.80;99.90;;;;;;5043217;28;20041;-78
2022/07/03 03:17:05;;;;;;;6.95;3.88;;;15.70;99.90;;;;;;5043773;28;20047;-78
2022/07/03 03:19:39;;;;;;;4.95;4.00;;;15.70;99.90;;;;;;5044333;28;20053;-78
2022/07/03 03:22:23;;;;;;;4.40;3.75;;;15.60;99.90;;;;;;5044701;28;20647;-78
2022/07/03 03:24:49;;;;;;;;;;;15.50;99.90;;;;;;5054057;28;20120;-78
2022/07/03 03:27:15;;;;;;;4.47;3.75;;;15.60;99.90;;;;;;5045560;28;20354;-78
2022/07/03 03:29:41;;;;;;;5.25;3.97;;;15.40;99.90;;;;;;5044808;28;20033;-79
2022/07/03 03:32:07;;;;;;;5.15;4.35;;;15.40;99.90;;;;;;5044262;28;20522;-78
2022/07/03 03:34:33;;;;;;;4.93;4.03;;;15.40;99.90;;;;;;5043803;28;20653;-78
2022/07/03 03:36:59;;;;;;;5.30;4.20;;;15.50;99.90;;;;;;5028001;28;20040;-78
2022/07/03 03:39:25;;;;;;;4.82;4.28;;;15.50;99.90;;;;;;5044604;28;20041;-78
2022/07/03 03:41:52;;;;;;;4.68;4.00;;;15.60;99.90;;;;;;5043141;28;20116;-79
2022/07/03 03:44:17;;;;;;;6.35;4.47;;;15.50;99.90;;;;;;5041253;28;20123;-78
2022/07/03 03:46:43;;;;;;;5.35;3.92;;;15.40;99.90;;;;;;5044030;28;20128;-79
2022/07/03 03:49:08;;;;;;;6.35;4.30;;;15.40;99.90;;;;;;5043596;28;20049;-79
2022/07/03 03:51:34;;;;;;;5.60;4.30;;;15.50;99.90;;;;;;5044524;28;20036;-78
2022/07/03 03:54:00;;;;;;;5.20;4.20;;;15.60;99.90;;;;;;5026453;28;20037;-78
2022/07/03 03:56:25;;;;;;;5.32;4.05;;;15.70;99.90;;;;;;5042793;28;20090;-78
2022/07/03 03:58:51;;;;;;;5.63;4.97;;;15.70;99.90;;;;;;5042831;28;20041;-78
2022/07/03 04:01:17;;;;;;;5.07;4.57;;;15.70;99.90;;;;;;5043693;28;20116;-79
2022/07/03 04:03:42;;;;;;;4.63;4.22;;;15.70;99.90;;;;;;5044433;28;20029;-78
2022/07/03 04:06:08;;;;;;;5.53;4.28;;;15.70;99.90;;;;;;5043777;28;20139;-79
2022/07/03 04:08:34;;;;;;;7.65;4.20;;;15.70;99.90;;;;;;5043813;28;20047;-79
2022/07/03 04:11:00;;;;;;;5.32;4.28;;;15.70;99.90;;;;;;5042663;28;20368;-78
2022/07/03 04:13:25;;;;;;;5.90;4.38;;;15.60;99.90;;;;;;5044134;28;20527;-78
2022/07/03 04:15:54;;;;;;;5.60;4.50;;;15.60;99.90;;;;;;5051104;28;20139;-78
2022/07/03 04:18:20;;;;;;;7.40;4.57;;;15.60;99.90;;;;;;5042934;28;20041;-78
2022/07/03 04:20:46;;;;;;;5.88;4.57;;;15.80;99.90;;;;;;5043927;28;20028;-78
2022/07/03 04:23:12;;;;;;;5.45;4.40;;;15.80;99.90;;;;;;5042853;28;20120;-78
2022/07/03 04:25:37;;;;;;;4.85;4.35;;;15.90;99.90;;;;;;5043862;28;20041;-78
2022/07/03 04:28:03;;;;;;;6.22;4.50;;;15.90;99.90;;;;;;5043184;28;20403;-78
2022/07/03 04:30:29;;;;;;;5.95;4.25;;;16.00;99.90;;;;;;5042594;28;20044;-78
2022/07/03 04:32:55;;;;;;;6.78;4.78;;;16.00;99.90;;;;;;5042479;28;20508;-78
2022/07/03 04:35:20;;;;;;;5.55;4.40;;;16.10;99.90;;;;;;5043361;28;20122;-79
2022/07/03 04:37:46;;;;;;;5.85;4.15;;;16.10;99.90;;;;;;5042008;28;20059;-78
2022/07/03 04:40:12;;;;;;;6.22;4.10;;;16.10;99.90;;;;;;5043242;28;20391;-78
2022/07/03 04:42:38;;;;;;;5.93;4.53;;;16.20;99.90;;;;;;5043657;28;20479;-78
2022/07/03 04:45:04;;;;;;;5.90;4.63;;;16.20;99.90;;;;;;5052409;28;20029;-78
2022/07/03 04:47:30;;;;;;;6.25;4.60;;;16.30;99.90;;;;;;5026791;28;20040;-78
2022/07/03 04:49:55;;;;;;;5.72;4.45;;;16.40;99.90;;;;;;5043461;28;20033;-78
2022/07/03 04:52:22;;;;;;;6.97;4.60;;;16.50;99.90;;;;;;5042277;28;20033;-78
2022/07/03 04:54:47;;;;;;;5.68;4.50;;;16.60;99.90;;;;;;5025782;28;20033;-78
2022/07/03 04:57:13;;;;;;;6.30;4.43;;;16.70;99.90;;;;;;5027924;28;20423;-78
2022/07/03 04:59:38;;;;;;;7.25;4.53;;;16.80;99.90;;;;;;5043771;28;20045;-78
2022/07/03 05:02:04;;;;;;;5.47;4.80;;;16.90;99.90;;;;;;5042019;28;20079;-78
2022/07/03 05:04:30;;;;;;;5.88;4.57;;;17.00;99.90;;;;;;5042300;28;20041;-78
2022/07/03 05:06:55;;;;;;;6.90;4.75;;;17.10;99.90;;;;;;5047107;28;20403;-78
2022/07/03 05:09:21;;;;;;;4.97;4.47;;;17.30;99.90;;;;;;5030861;28;20040;-78
2022/07/03 05:11:46;;;;;;;6.93;4.47;;;17.40;99.90;;;;;;5046066;28;20506;-78
2022/07/03 05:14:12;;;;;;;5.72;4.03;;;17.50;99.90;;;;;;5028670;28;20037;-78
2022/07/03 05:16:38;;;;;;;6.07;3.75;;;17.50;99.90;;;;;;5047193;28;20414;-78
2022/07/03 05:19:03;;;;;;;4.88;3.88;;;17.60;99.90;;;;;;5044866;28;20127;-78
2022/07/03 05:21:29;;;;;;;4.80;3.85;;;17.70;99.90;;;;;;5055427;28;20033;-79
2022/07/03 05:23:54;;;;;;;4.88;4.03;;;17.90;99.90;;;;;;5045154;28;20033;-78
2022/07/03 05:26:20;;;;;;;6.13;3.75;;;18.00;99.90;;;;;;5046775;28;20041;-78
2022/07/03 05:28:45;;;;;;;6.20;3.67;;;18.20;99.90;;;;;;5045246;28;20055;-78
2022/07/03 05:31:11;;;;;;;5.25;3.42;;;18.30;99.90;;;;;;5046864;28;20076;-78
2022/07/03 05:33:37;;;;;;;6.00;3.28;;;18.50;99.90;;;;;;5045520;28;20043;-78
2022/07/03 05:36:04;;;;;;;4.55;3.08;;;18.70;99.90;;;;;;5044199;28;20045;-78
2022/07/03 05:41:14;;;;;;;4.47;2.70;;;18.80;99.90;;;;;;5047765;28;20120;-78
2022/07/03 05:43:40;;;;;;;5.00;2.83;;;18.80;99.90;;;;;;5044382;28;20124;-78
2022/07/03 05:46:05;;;;;;;5.75;3.00;;;18.80;99.90;;;;;;5062365;28;20440;-78
2022/07/03 05:48:31;;;;;;;5.00;3.22;;;18.80;99.90;;;;;;5045886;28;20688;-78
2022/07/03 05:50:57;;;;;;;4.43;2.70;;;18.90;99.90;;;;;;5045957;28;20032;-78
2022/07/03 05:53:22;;;;;;;4.93;2.60;;;18.90;99.90;;;;;;5045106;28;20075;-78
2022/07/03 05:55:48;;;;;;;4.10;2.60;;;18.90;99.90;;;;;;5030345;28;20060;-78
2022/07/03 05:58:14;;;;;;;4.70;2.63;;;18.90;99.90;;;;;;5047202;28;20123;-78
2022/07/03 06:00:40;;;;;;;4.38;2.70;;;19.00;99.90;;;;;;5046228;28;20044;-79
2022/07/03 06:03:05;;;;;;;3.53;2.70;;;19.20;99.90;;;;;;5030093;28;20033;-79
2022/07/03 06:05:32;;;;;;;6.18;2.38;;;19.30;99.90;;;;;;5046326;28;20383;-78
2022/07/03 06:07:58;;;;;;;4.38;2.70;;;19.30;99.90;;;;;;5042179;28;20095;-78
2022/07/03 06:10:24;;;;;;;4.18;2.10;;;19.30;99.90;;;;;;5047538;28;20048;-78
2022/07/03 06:12:49;;;;;;;5.65;2.28;;;19.30;99.90;;;;;;5027656;28;20048;-78
2022/07/03 06:15:15;;;;;;;5.55;1.90;;;19.20;99.90;;;;;;5045721;28;20498;-78
2022/07/03 06:17:40;;;;;;;4.95;1.83;;;19.20;99.90;;;;;;5046050;28;20162;-78
2022/07/03 06:20:07;;;;;;;3.15;1.67;;;19.30;99.90;;;;;;5046461;28;20095;-78
2022/07/03 06:22:33;;;;;;;3.92;1.77;;;19.30;99.90;;;;;;5046653;28;20037;-78
2022/07/03 06:24:59;;;;;;;5.97;1.85;;;19.20;99.90;;;;;;5042895;28;20045;-79
2022/07/03 06:27:24;;;;;;;7.55;1.90;;;19.10;99.90;;;;;;5045751;28;20032;-78
2022/07/03 06:29:50;;;;;;;3.17;1.70;;;19.00;99.90;;;;;;5044511;28;20068;-78
2022/07/03 06:32:17;;;;;;;5.18;1.92;;;18.90;99.90;;;;;;5044530;28;20044;-78
2022/07/03 06:34:45;;;;;;;3.95;1.58;;;18.90;99.90;;;;;;5028274;28;20067;-78
2022/07/03 06:37:11;;;;;;;4.18;1.70;;;19.10;99.90;;;;;;5045039;28;20045;-78
2022/07/03 06:39:37;;;;;;;5.72;1.70;;;19.30;99.90;;;;;;5045341;28;20537;-78
2022/07/03 06:42:04;;;;;;;3.05;1.50;;;19.40;99.90;;;;;;5057298;28;20049;-78
2022/07/03 06:44:29;;;;;;;3.28;1.55;;;19.50;99.90;;;;;;5045245;28;20033;-79
2022/07/03 06:46:55;;;;;;;3.28;1.50;;;19.60;99.90;;;;;;5043371;28;20082;-78
2022/07/03 06:49:20;;;;;;;3.92;1.38;;;19.60;99.90;;;;;;5029220;28;20071;-79
2022/07/03 06:51:46;;;;;;;2.45;1.20;;;19.60;99.90;;;;;;5046856;28;20096;-79
2022/07/03 06:54:12;;;;;;;1.95;1.20;;;19.60;99.90;;;;;;5046068;28;20037;-79
2022/07/03 06:56:37;;;;;;;3.58;1.27;;;19.60;99.90;;;;;;5043698;28;20037;-78
2022/07/03 06:59:03;;;;;;;3.90;1.30;;;19.60;99.90;;;;;;5044979;28;20422;-78
2022/07/03 07:01:28;;;;;;;1.85;1.10;;;19.80;99.90;;;;;;5045215;28;20041;-79
2022/07/03 07:03:54;;;;;;;3.05;1.40;;;19.90;99.90;;;;;;5046997;28;20037;-79
2022/07/03 07:06:19;;;;;;;3.72;1.40;;;20.20;99.90;;;;;;5043862;28;20041;-79
2022/07/03 07:08:45;;;;;;;2.40;1.30;;;20.50;99.90;;;;;;5045423;28;20037;-79
2022/07/03 07:11:11;;;;;;;2.13;1.40;;;20.80;99.90;;;;;;5046503;28;20148;-79
2022/07/03 07:13:37;;;;;;;4.00;1.25;;;20.90;99.90;;;;;;5044696;28;20066;-79
2022/07/03 07:16:02;;;;;;;4.18;1.30;;;21.00;99.90;;;;;;5043932;28;20033;-79
2022/07/03 07:18:28;;;;;;;3.03;1.25;;;20.90;99.90;;;;;;5045999;28;20049;-78
2022/07/03 07:20:53;;;;;;;3.42;1.35;;;20.80;99.90;;;;;;5028912;28;20037;-79
2022/07/03 07:23:19;;;;;;;4.93;1.58;;;20.60;99.90;;;;;;5044327;28;20499;-79
2022/07/03 07:25:44;;;;;;;4.85;1.20;;;20.40;99.90;;;;;;5030274;28;20692;-79
2022/07/03 07:28:10;;;;;;;3.42;1.20;;;20.20;99.90;;;;;;5029944;28;20112;-79
2022/07/03 07:30:36;;;;;;;4.07;1.60;;;20.20;99.90;;;;;;5032414;28;20439;-79
2022/07/03 07:33:02;;;;;;;3.53;1.20;;;20.30;99.90;;;;;;5031364;28;20099;-79
2022/07/03 07:35:27;;;;;;;4.20;1.38;;;20.50;99.90;;;;;;5041609;28;20052;-79
2022/07/03 07:37:53;;;;;;;4.97;1.23;;;20.60;99.90;;;;;;5030083;28;20069;-79
2022/07/03 07:40:19;;;;;;;2.70;1.52;;;20.80;99.90;;;;;;5044676;28;20040;-80
2022/07/03 07:42:44;;;;;;;6.25;2.10;;;21.00;99.90;;;;;;5044819;28;20055;-79
2022/07/03 07:45:11;;;;;;;3.22;1.48;;;20.90;99.90;;;;;;5034991;28;20033;-80
2022/07/03 07:47:37;;;;;;;5.55;1.60;;;21.10;99.90;;;;;;5033292;28;20381;-79
2022/07/03 07:50:03;;;;;;;4.07;1.67;;;21.20;99.90;;;;;;5032523;28;20036;-80
2022/07/03 07:52:29;;;;;;;3.25;1.27;;;21.20;99.90;;;;;;5045389;28;20158;-81
2022/07/03 07:54:54;;;;;;;3.92;1.20;;;21.20;99.90;;;;;;5048642;28;20124;-80
2022/07/03 07:57:20;;;;;;;3.67;1.20;;;21.10;99.90;;;;;;5032648;28;20121;-80
2022/07/03 07:59:46;;;;;;;3.50;1.65;;;21.10;99.90;;;;;;5039995;28;20037;-79
2022/07/03 08:07:40;;;;;;;3.40;1.55;;;21.20;99.90;;;;;;5052627;28;20128;-79
2022/07/03 08:10:06;;;;;;;3.00;1.50;;;21.50;99.90;;;;;;5049889;28;20064;-79
2022/07/03 08:12:31;;;;;;;4.93;1.20;;;21.70;99.90;;;;;;5041014;28;20132;-80
2022/07/03 08:14:57;;;;;;;3.60;1.40;;;21.90;99.90;;;;;;5030658;28;20458;-80
2022/07/03 08:17:22;;;;;;;3.00;1.25;;;22.20;99.90;;;;;;5031237;28;20030;-80
2022/07/03 08:19:48;;;;;;;2.97;1.10;;;22.30;99.90;;;;;;5032701;28;20052;-81
2022/07/03 08:22:13;;;;;;;2.58;1.10;;;22.40;99.90;;;;;;5033837;28;20426;-80
2022/07/03 08:24:39;;;;;;;3.83;0.90;;;22.20;99.90;;;;;;5031539;28;20052;-80
2022/07/03 08:27:05;;;;;;;3.35;0.80;;;22.30;99.90;;;;;;5031195;28;20045;-81
2022/07/03 08:29:31;;;;;;;1.92;0.70;;;22.30;99.90;;;;;;5031921;28;20113;-80
2022/07/03 08:31:57;;;;;;;1.50;0.63;;;22.30;99.90;;;;;;5031973;28;20091;-80
2022/07/03 08:34:22;;;;;;;2.15;1.13;;;22.40;99.90;;;;;;5031405;28;20190;-79
2022/07/03 08:36:48;;;;;;;2.20;0.80;;;22.50;99.90;;;;;;5031634;28;20423;-79
2022/07/03 08:39:14;;;;;;;6.03;1.02;;;22.50;99.90;;;;;;5031853;28;20037;-80
2022/07/03 08:41:41;;;;;;;1.75;0.60;;;22.50;99.70;;;;;;5032031;28;20037;-80
2022/07/03 08:44:08;;;;;;;4.07;0.60;;;22.60;99.60;;;;;;5031058;28;20041;-79
2022/07/03 08:46:36;;;;;;;1.60;0.63;;;22.60;99.50;;;;;;5031599;28;20063;-79
2022/07/03 08:49:02;;;;;;;2.58;0.60;;;22.70;99.30;;;;;;5031815;28;20474;-81
2022/07/03 08:51:28;;;;;;;1.60;0.70;;;22.70;99.00;;;;;;5031127;28;20844;-79
2022/07/03 08:53:54;;;;;;;1.65;0.60;;;22.70;99.00;;;;;;5030512;28;20049;-79
2022/07/03 08:56:23;;;;;;;1.80;0.70;;;22.80;99.20;;;;;;5029919;28;20060;-79
2022/07/03 08:58:49;;;;;;;1.85;0.55;;;22.90;99.20;;;;;;5032876;28;20524;-79
2022/07/03 09:01:17;;;;;;;2.38;0.73;;;23.00;99.10;;;;;;5043343;28;20025;-79
2022/07/03 09:03:43;;;;;;;2.65;0.70;;;23.10;98.80;;;;;;5026672;28;20045;-79
2022/07/03 09:06:08;;;;;;;2.10;0.80;;;23.00;98.60;;;;;;5042689;28;20036;-79
2022/07/03 09:08:36;;;;;;;1.42;0.70;;;23.00;98.80;;;;;;5042439;28;20032;-79
2022/07/03 09:11:02;;;;;;;2.95;0.73;;;23.00;98.60;;;;;;5043554;28;20727;-79
2022/07/03 09:13:29;;;;;;;3.65;0.70;;;23.00;98.30;;;;;;5026270;28;20049;-79
2022/07/03 09:15:54;;;;;;;1.65;0.60;;;23.00;98.00;;;;;;5043305;28;20037;-79
2022/07/03 09:18:39;;;;;;;3.15;0.65;;;22.90;98.10;;;;;;5041284;28;20052;-79
2022/07/03 09:21:05;;;;;;;2.25;0.60;;;22.80;97.70;;;;;;5043487;28;20517;-79
2022/07/03 09:23:39;;;;;;;1.67;0.60;;;22.90;98.20;;;;;;5045298;28;20025;-79
2022/07/03 09:26:06;;;;;;;2.53;0.68;;;22.90;97.20;;;;;;5032769;28;20495;-80
2022/07/03 09:28:45;;;;;;;1.80;0.60;;;23.00;97.70;;;;;;5050271;28;20116;-79
2022/07/03 09:31:22;;;;;;;3.33;0.90;;;23.10;98.10;;;;;;5049564;28;20041;-79
2022/07/03 09:33:52;;;;;;;1.85;0.73;;;23.20;97.80;;;;;;5040063;28;20045;-79
2022/07/03 09:36:20;;;;;;;2.33;0.77;;;23.30;97.90;;;;;;5043441;28;20450;-80
2022/07/03 09:38:46;;;;;;;1.27;0.55;;;23.40;97.80;;;;;;5041881;28;20095;-78
2022/07/03 09:41:12;;;;;;;3.47;0.70;;;23.50;98.10;;;;;;5023177;28;20614;-79
2022/07/03 09:43:42;;;;;;;3.30;0.80;;;23.60;97.30;;;;;;5039852;28;20579;-78
2022/07/03 09:46:08;;;;;;;0.88;0.50;;;23.60;97.50;;;;;;5028901;28;20099;-80
2022/07/03 09:48:34;;;;;;;1.60;0.60;;;23.50;97.10;;;;;;5027183;28;20037;-80
2022/07/03 09:51:13;;;;;;;1.48;0.50;;;23.40;97.10;;;;;;5042536;28;20044;-80
2022/07/03 09:53:51;;;;;;;2.55;0.70;;;23.60;97.30;;;;;;5026194;28;20498;-79
2022/07/03 09:56:22;;;;;;;0.85;0.50;;;23.80;97.40;;;;;;5030615;28;20528;-78
2022/07/03 09:59:13;;;;;;;2.92;0.93;;;23.90;97.10;;;;;;5047032;28;20584;-79
2022/07/03 10:01:46;;;;;;;2.90;0.80;;;23.90;97.20;;;;;;5030866;28;20037;-80
2022/07/03 10:04:20;;;;;;;1.48;0.55;;;24.00;96.80;;;;;;5055808;28;20502;-79
2022/07/03 10:06:59;;;;;;;2.80;0.70;;;24.10;96.70;;;;;;5037702;28;20060;-80
2022/07/03 10:09:27;;;;;;;3.22;0.70;;;24.20;96.70;;;;;;5046376;28;20048;-80
2022/07/03 10:11:54;;;;;;;2.58;0.90;;;24.20;97.10;;;;;;5045880;28;20036;-80
2022/07/03 10:14:22;;;;;;;3.22;0.70;;;24.30;97.10;;;;;;5044350;28;20068;-80
2022/07/03 10:16:48;;;;;;;3.03;1.08;;;24.10;97.10;;;;;;5046554;28;20044;-80
2022/07/03 10:19:20;;;;;;;3.55;1.00;;;24.10;97.60;;;;;;5046202;28;20041;-79
2022/07/03 10:21:52;;;;;;;3.15;0.68;;;24.10;97.60;;;;;;5044934;28;20055;-79
2022/07/03 10:24:23;;;;;;;1.80;0.68;;;24.30;96.60;;;;;;5050279;28;20040;-80
2022/07/03 10:26:50;;;;;;;2.33;0.77;;;24.40;96.20;;;;;;5034507;28;20651;-79
2022/07/03 10:29:16;;;;;;;2.90;0.70;;;24.40;96.10;;;;;;5040541;28;20095;-79
2022/07/03 10:31:46;;;;;;;1.67;0.65;;;24.50;96.10;;;;;;5033215;28;20069;-79
2022/07/03 10:34:16;;;;;;;2.45;0.60;;;24.50;94.40;;;;;;5032512;28;20041;-80
2022/07/03 10:36:43;;;;;;;2.05;0.60;;;24.70;95.40;;;;;;5017275;28;20041;-80
2022/07/03 10:39:19;;;;;;;1.75;0.60;;;24.70;95.30;;;;;;5033089;28;20410;-79
2022/07/03 10:44:48;;;;;;;2.03;0.73;;;25.10;95.60;;;;;;5054272;28;20479;-79
2022/07/03 10:47:43;;;;;;;3.25;0.80;;;24.90;95.20;;;;;;5046275;28;20029;-79
2022/07/03 10:50:17;;;;;;;2.83;0.90;;;24.60;96.20;;;;;;5046428;28;20108;-79
2022/07/03 10:52:44;;;;;;;2.58;0.85;;;24.50;96.80;;;;;;5047828;28;20068;-79
2022/07/03 10:55:11;;;;;;;2.35;0.90;;;24.20;95.30;;;;;;5045163;28;20116;-79
2022/07/03 10:57:38;;;;;;;1.98;0.80;;;24.20;95.80;;;;;;5041972;28;20037;-78
2022/07/03 11:00:12;;;;;;;4.55;0.93;;;24.20;96.60;;;;;;5048982;28;20041;-80
2022/07/03 11:02:43;;;;;;;2.10;1.00;;;24.40;96.90;;;;;;5044297;28;20679;-79
2022/07/03 11:05:11;;;;;;;2.58;0.95;;;24.40;96.70;;;;;;5046490;28;20112;-79
2022/07/03 11:07:53;;;;;;;1.63;0.85;;;24.40;97.00;;;;;;5047317;28;20507;-79
2022/07/03 11:10:18;;;;;;;2.53;0.73;;;24.50;97.30;;;;;;5043189;28;20048;-79
2022/07/03 11:12:56;;;;;;;2.72;0.88;;;24.60;96.60;;;;;;5050747;28;20040;-79
2022/07/03 11:15:43;;;;;;;4.82;0.90;;;24.60;96.60;;;;;;5034627;28;20083;-79
2022/07/03 11:18:16;;;;;;;2.45;0.80;;;24.20;96.20;;;;;;5050964;28;20107;-78
2022/07/03 11:20:42;;;;;;;3.90;0.90;;;23.90;96.70;;;;;;5048357;28;20037;-79
2022/07/03 11:23:10;;;;;;;2.10;0.80;;;23.80;96.70;;;;;;5038090;28;20056;-79
2022/07/03 11:25:40;;;;;;;2.72;0.88;;;24.10;97.40;;;;;;5042044;28;20037;-79
2022/07/03 11:28:05;;;;;;;2.88;0.90;;;24.50;97.20;;;;;;5052779;28;20041;-79
2022/07/03 11:30:34;;;;;;;4.03;1.10;;;24.80;96.60;;;;;;5047240;28;20041;-80
2022/07/03 11:33:01;;;;;;;2.80;1.00;;;25.00;96.60;;;;;;5032390;28;20045;-80
2022/07/03 11:35:46;;;;;;;4.30;1.13;;;25.10;96.50;;;;;;5042829;28;20037;-79
2022/07/03 11:38:14;;;;;;;3.83;0.90;;;25.30;96.80;;;;;;5030807;28;20063;-79
2022/07/03 11:40:43;;;;;;;4.88;1.10;;;25.30;96.60;;;;;;5049044;28;20388;-80
2022/07/03 11:43:09;;;;;;;4.82;1.10;;;25.40;96.50;;;;;;5045173;28;20048;-80
2022/07/03 11:45:38;;;;;;;2.50;0.90;;;25.20;96.30;;;;;;5042954;28;20125;-81
2022/07/03 11:48:16;;;;;;;4.82;1.58;;;25.10;94.60;;;;;;5046060;28;20041;-79
2022/07/03 11:50:44;;;;;;;3.83;1.25;;;25.10;95.80;;;;;;5043036;28;20119;-79
2022/07/03 11:53:27;;;;;;;2.33;1.00;;;24.90;96.40;;;;;;5045919;28;20494;-79
2022/07/03 11:55:58;;;;;;;4.55;0.93;;;24.90;96.30;;;;;;5055341;28;20037;-79
2022/07/03 11:58:39;;;;;;;3.23;1.00;;;25.10;95.80;;;;;;5054462;28;20132;-80
2022/07/03 12:01:05;;;;;;;5.65;1.42;;;25.00;96.20;;;;;;5050152;28;20302;-79
2022/07/03 12:03:31;;;;;;;4.97;1.13;;;24.90;96.30;;;;;;5046852;28;20032;-80
2022/07/03 12:05:58;;;;;;;4.40;1.58;;;25.00;96.50;;;;;;5046219;28;20044;-80
2022/07/03 12:08:31;;;;;;;6.18;1.25;;;25.00;95.70;;;;;;5046737;28;20056;-81
2022/07/03 12:11:09;;;;;;;3.15;0.98;;;24.80;96.40;;;;;;5047350;28;20114;-80
2022/07/03 12:13:35;;;;;;;6.57;1.00;;;25.00;96.70;;;;;;5046954;28;20128;-79
2022/07/03 12:16:18;;;;;;;2.88;0.93;;;25.20;96.80;;;;;;5040587;28;20120;-79
2022/07/03 12:18:53;;;;;;;3.53;1.17;;;25.40;95.80;;;;;;5059725;28;20033;-80
2022/07/03 12:21:23;;;;;;;4.65;1.38;;;25.40;96.00;;;;;;5043172;28;20128;-79
2022/07/03 12:23:52;;;;;;;4.75;1.30;;;25.10;96.20;;;;;;5064214;28;20048;-79
2022/07/03 12:26:36;;;;;;;4.63;1.38;;;25.20;96.50;;;;;;5038399;28;20454;-80
2022/07/03 12:29:10;;;;;;;4.78;1.10;;;25.00;96.00;;;;;;5041699;28;20041;-78
2022/07/03 12:31:43;;;;;;;4.00;0.93;;;25.00;96.30;;;;;;5031801;28;20419;-79
2022/07/03 12:34:10;;;;;;;4.47;1.13;;;24.80;95.70;;;;;;5033366;28;20038;-79
2022/07/03 12:36:37;;;;;;;4.82;1.20;;;24.40;96.10;;;;;;5047583;28;20052;-79
2022/07/03 12:39:03;;;;;;;4.43;1.17;;;24.20;96.70;;;;;;5033033;28;20415;-78
2022/07/03 12:41:29;;;;;;;4.38;1.10;;;24.00;97.50;;;;;;5048895;28;20041;-79
2022/07/03 12:43:57;;;;;;;6.18;1.27;;;24.00;97.60;;;;;;5040359;28;20033;-79
2022/07/03 12:46:33;;;;;;;4.10;1.08;;;24.50;97.70;;;;;;5045673;28;20056;-78
2022/07/03 12:49:07;;;;;;;3.95;0.90;;;24.90;97.80;;;;;;5032568;28;20112;-79
2022/07/03 12:51:39;;;;;;;4.60;1.38;;;25.20;97.30;;;;;;5044852;28;20077;-80
2022/07/03 12:54:13;;;;;;;3.80;1.17;;;25.50;97.20;;;;;;5039429;28;20037;-79
2022/07/03 12:56:40;;;;;;;3.00;1.10;;;26.00;96.70;;;;;;5048037;28;20175;-80
2022/07/03 12:59:18;;;;;;;3.28;1.15;;;26.30;96.50;;;;;;5045156;28;20067;-80
2022/07/03 13:02:04;;;;;;;4.75;1.10;;;26.60;96.00;;;;;;5043156;28;20033;-80
2022/07/03 13:04:32;;;;;;;3.53;0.98;;;26.70;95.70;;;;;;5045322;28;20041;-79
2022/07/03 13:07:05;;;;;;;3.75;0.80;;;26.90;94.80;;;;;;5049159;28;20071;-80
2022/07/03 13:09:31;;;;;;;;;;;27.00;92.80;;;;;;5031444;28;20041;-79
2022/07/03 13:11:57;;;;;;;4.80;1.00;;;26.50;92.70;;;;;;5044614;28;20504;-79